createdAt,value
2023-04-19T00:00:39.941Z,95303.00
2023-04-19T00:01:40.098Z,95305.00
2023-04-19T00:02:42.222Z,95305.00
2023-04-19T00:03:40.555Z,95305.00
2023-04-19T00:04:40.414Z,95305.00
2023-04-19T00:05:40.307Z,95303.00
2023-04-19T00:06:41.094Z,95303.00
2023-04-19T00:07:40.358Z,95305.00
2023-04-19T00:08:40.420Z,95300.00
2023-04-19T00:09:40.429Z,95300.00
2023-04-19T00:10:40.447Z,95300.00
2023-04-19T00:11:40.486Z,95298.00
2023-04-19T00:12:40.483Z,95298.00
2023-04-19T00:13:40.518Z,95298.00
2023-04-19T00:14:40.561Z,95298.00
2023-04-19T00:15:40.613Z,95298.00
2023-04-19T00:16:40.716Z,95298.00
2023-04-19T00:17:40.696Z,95300.00
2023-04-19T00:18:40.672Z,95298.00
2023-04-19T00:19:40.705Z,95298.00
2023-04-19T00:20:40.762Z,95298.00
2023-04-19T00:21:40.797Z,95298.00
2023-04-19T00:22:40.833Z,95294.00
2023-04-19T00:23:40.856Z,95298.00
2023-04-19T00:24:40.912Z,95298.00
2023-04-19T00:25:40.905Z,95298.00
2023-04-19T00:26:40.941Z,95298.00
2023-04-19T00:27:40.972Z,95298.00
2023-04-19T00:28:41.004Z,95298.00
2023-04-19T00:29:41.064Z,95298.00
2023-04-19T00:30:41.124Z,95300.00
2023-04-19T00:31:41.128Z,95298.00
2023-04-19T00:32:41.222Z,95296.00
2023-04-19T00:33:41.181Z,95296.00
2023-04-19T00:34:41.239Z,95296.00
2023-04-19T00:35:41.282Z,95294.00
2023-04-19T00:36:41.292Z,95294.00
2023-04-19T00:37:41.301Z,95292.00
2023-04-19T00:38:41.360Z,95292.00
2023-04-19T00:39:41.395Z,95292.00
2023-04-19T00:40:41.433Z,95292.00
2023-04-19T00:41:41.532Z,95294.00
2023-04-19T00:42:41.470Z,95292.00
2023-04-19T00:43:41.497Z,95294.00
2023-04-19T00:44:41.569Z,95292.00
2023-04-19T00:45:41.577Z,95292.00
2023-04-19T00:46:41.692Z,95292.00
2023-04-19T00:47:41.681Z,95290.00
2023-04-19T00:48:41.698Z,95292.00
2023-04-19T00:49:41.689Z,95290.00
2023-04-19T00:50:41.749Z,95292.00
2023-04-19T00:51:41.757Z,95288.00
2023-04-19T00:52:41.853Z,95288.00
2023-04-19T00:53:41.859Z,95292.00
2023-04-19T00:54:41.912Z,95288.00
2023-04-19T00:55:41.944Z,95288.00
2023-04-19T00:56:41.971Z,95288.00
2023-04-19T00:57:41.992Z,95288.00
2023-04-19T00:58:42.022Z,95288.00
2023-04-19T00:59:42.125Z,95286.00
2023-04-19T01:00:42.126Z,95286.00
2023-04-19T01:01:42.182Z,95286.00
2023-04-19T01:02:42.274Z,95286.00
2023-04-19T01:03:42.318Z,95286.00
2023-04-19T01:04:42.250Z,95286.00
2023-04-19T01:05:42.314Z,95286.00
2023-04-19T01:06:42.349Z,95284.00
2023-04-19T01:07:42.352Z,95286.00
2023-04-19T01:08:42.374Z,95286.00
2023-04-19T01:09:42.445Z,95286.00
2023-04-19T01:10:42.481Z,95284.00
2023-04-19T01:11:43.447Z,95284.00
2023-04-19T01:12:42.621Z,95286.00
2023-04-19T01:13:42.596Z,95284.00
2023-04-19T01:14:42.595Z,95280.00
2023-04-19T01:15:42.750Z,95280.00
2023-04-19T01:16:42.687Z,95278.00
2023-04-19T01:17:42.749Z,95276.00
2023-04-19T01:18:42.760Z,95278.00
2023-04-19T01:19:42.784Z,95278.00
2023-04-19T01:20:42.839Z,95274.00
2023-04-19T01:21:42.887Z,95278.00
2023-04-19T01:22:42.910Z,95274.00
2023-04-19T01:23:43.015Z,95274.00
2023-04-19T01:24:42.976Z,95274.00
2023-04-19T01:25:43.014Z,95272.00
2023-04-19T01:26:43.044Z,95272.00
2023-04-19T01:27:43.097Z,95270.00
2023-04-19T01:28:43.102Z,95268.00
2023-04-19T01:29:43.136Z,95268.00
2023-04-19T01:30:43.164Z,95266.00
2023-04-19T01:31:43.393Z,95266.00
2023-04-19T01:32:43.254Z,95266.00
2023-04-19T01:33:43.262Z,95264.00
2023-04-19T01:34:43.292Z,95264.00
2023-04-19T01:35:43.363Z,95264.00
2023-04-19T01:36:43.345Z,95264.00
2023-04-19T01:37:43.401Z,95260.00
2023-04-19T01:38:43.430Z,95260.00
2023-04-19T01:39:43.433Z,95260.00
2023-04-19T01:40:43.479Z,95260.00
2023-04-19T01:41:43.519Z,95258.00
2023-04-19T01:42:43.578Z,95256.00
2023-04-19T01:43:43.669Z,95258.00
2023-04-19T01:44:43.679Z,95258.00
2023-04-19T01:45:43.674Z,95258.00
2023-04-19T01:46:43.749Z,95256.00
2023-04-19T01:47:43.829Z,95254.00
2023-04-19T01:48:43.795Z,95251.00
2023-04-19T01:49:43.860Z,95254.00
2023-04-19T01:50:43.906Z,95253.00
2023-04-19T01:51:43.926Z,95253.00
2023-04-19T01:52:43.954Z,95253.00
2023-04-19T01:53:44.022Z,95253.00
2023-04-19T01:54:44.058Z,95251.00
2023-04-19T01:55:44.076Z,95253.00
2023-04-19T01:56:44.133Z,95253.00
2023-04-19T01:57:44.150Z,95251.00
2023-04-19T01:58:44.179Z,95249.00
2023-04-19T01:59:44.236Z,95249.00
2023-04-19T02:00:44.295Z,95249.00
2023-04-19T02:01:44.353Z,95251.00
2023-04-19T02:02:44.453Z,95249.00
2023-04-19T02:03:44.691Z,95251.00
2023-04-19T02:04:44.414Z,95249.00
2023-04-19T02:05:44.474Z,95249.00
2023-04-19T02:06:44.537Z,95247.00
2023-04-19T02:07:44.557Z,95249.00
2023-04-19T02:08:44.583Z,95247.00
2023-04-19T02:09:44.662Z,95247.00
2023-04-19T02:10:44.639Z,95243.00
2023-04-19T02:11:44.687Z,95247.00
2023-04-19T02:12:44.730Z,95249.00
2023-04-19T02:13:44.780Z,95247.00
2023-04-19T02:14:44.795Z,95245.00
2023-04-19T02:15:44.853Z,95245.00
2023-04-19T02:16:44.921Z,95249.00
2023-04-19T02:17:44.933Z,95245.00
2023-04-19T02:18:44.951Z,95245.00
2023-04-19T02:19:44.951Z,95243.00
2023-04-19T02:20:45.010Z,95241.00
2023-04-19T02:21:45.040Z,95239.00
2023-04-19T02:22:45.088Z,95239.00
2023-04-19T02:23:45.147Z,95237.00
2023-04-19T02:24:45.169Z,95237.00
2023-04-19T02:25:45.211Z,95235.00
2023-04-19T02:26:45.228Z,95235.00
2023-04-19T02:27:45.302Z,95233.00
2023-04-19T02:28:45.311Z,95231.00
2023-04-19T02:29:45.408Z,95231.00
2023-04-19T02:30:45.395Z,95231.00
2023-04-19T02:31:45.471Z,95229.00
2023-04-19T02:32:45.479Z,95227.00
2023-04-19T02:33:45.525Z,95227.00
2023-04-19T02:34:45.544Z,95227.00
2023-04-19T02:35:45.589Z,95227.00
2023-04-19T02:36:45.632Z,95225.00
2023-04-19T02:37:45.678Z,95227.00
2023-04-19T02:38:45.727Z,95225.00
2023-04-19T02:39:45.718Z,95225.00
2023-04-19T02:40:45.783Z,95225.00
2023-04-19T02:41:45.890Z,95223.00
2023-04-19T02:42:45.872Z,95225.00
2023-04-19T02:43:45.914Z,95223.00
2023-04-19T02:44:45.966Z,95223.00
2023-04-19T02:45:46.088Z,95221.00
2023-04-19T02:46:46.045Z,95219.00
2023-04-19T02:47:46.120Z,95219.00
2023-04-19T02:48:46.114Z,95219.00
2023-04-19T02:49:46.175Z,95217.00
2023-04-19T02:50:46.183Z,95219.00
2023-04-19T02:51:46.248Z,95219.00
2023-04-19T02:52:46.285Z,95217.00
2023-04-19T02:53:46.340Z,95219.00
2023-04-19T02:54:46.387Z,95217.00
2023-04-19T02:55:46.405Z,95219.00
2023-04-19T02:56:46.483Z,95219.00
2023-04-19T02:57:46.522Z,95219.00
2023-04-19T02:58:46.549Z,95219.00
2023-04-19T02:59:46.585Z,95219.00
2023-04-19T03:00:46.617Z,95219.00
2023-04-19T03:01:46.770Z,95219.00
2023-04-19T03:02:46.794Z,95217.00
2023-04-19T03:03:46.890Z,95217.00
2023-04-19T03:04:46.773Z,95217.00
2023-04-19T03:05:46.848Z,95215.00
2023-04-19T03:06:46.922Z,95217.00
2023-04-19T03:07:46.934Z,95217.00
2023-04-19T03:08:46.948Z,95215.00
2023-04-19T03:09:46.996Z,95215.00
2023-04-19T03:10:47.037Z,95213.00
2023-04-19T03:11:47.076Z,95215.00
2023-04-19T03:12:47.156Z,95213.00
2023-04-19T03:13:47.164Z,95211.00
2023-04-19T03:14:47.227Z,95213.00
2023-04-19T03:15:47.281Z,95211.00
2023-04-19T03:16:47.323Z,95213.00
2023-04-19T03:17:47.384Z,95211.00
2023-04-19T03:18:49.490Z,95209.00
2023-04-19T03:19:47.408Z,95209.00
2023-04-19T03:20:47.422Z,95207.00
2023-04-19T03:21:47.460Z,95207.00
2023-04-19T03:22:47.506Z,95203.00
2023-04-19T03:23:47.588Z,95203.00
2023-04-19T03:24:48.174Z,95201.00
2023-04-19T03:25:47.667Z,95199.00
2023-04-19T03:26:47.712Z,95199.00
2023-04-19T03:27:47.730Z,95198.00
2023-04-19T03:28:47.755Z,95198.00
2023-04-19T03:29:48.980Z,95196.00
2023-04-19T03:30:47.858Z,95194.00
2023-04-19T03:31:47.968Z,95192.00
2023-04-19T03:32:48.015Z,95192.00
2023-04-19T03:33:47.999Z,95192.00
2023-04-19T03:34:48.024Z,95190.00
2023-04-19T03:35:48.088Z,95190.00
2023-04-19T03:36:48.108Z,95182.00
2023-04-19T03:37:48.164Z,95190.00
2023-04-19T03:38:48.162Z,95184.00
2023-04-19T03:39:48.237Z,95188.00
2023-04-19T03:40:48.262Z,95188.00
2023-04-19T03:41:48.304Z,95182.00
2023-04-19T03:42:48.338Z,95182.00
2023-04-19T03:43:48.380Z,95178.00
2023-04-19T03:44:48.453Z,95180.00
2023-04-19T03:45:48.490Z,95184.00
2023-04-19T03:46:48.530Z,95186.00
2023-04-19T03:47:48.662Z,95178.00
2023-04-19T03:48:48.629Z,95180.00
2023-04-19T03:49:48.663Z,95182.00
2023-04-19T03:50:48.691Z,95180.00
2023-04-19T03:51:48.745Z,95178.00
2023-04-19T03:52:48.791Z,95180.00
2023-04-19T03:53:48.830Z,95180.00
2023-04-19T03:54:48.901Z,95180.00
2023-04-19T03:55:48.934Z,95178.00
2023-04-19T03:56:48.985Z,95178.00
2023-04-19T03:57:49.016Z,95178.00
2023-04-19T03:58:49.056Z,95180.00
2023-04-19T03:59:49.101Z,95178.00
2023-04-19T04:00:49.125Z,95178.00
2023-04-19T04:01:49.205Z,95178.00
2023-04-19T04:02:49.389Z,95176.00
2023-04-19T04:03:49.718Z,95182.00
2023-04-19T04:04:49.508Z,95182.00
2023-04-19T04:05:49.345Z,95182.00
2023-04-19T04:06:49.379Z,95180.00
2023-04-19T04:07:49.471Z,95184.00
2023-04-19T04:08:49.509Z,95182.00
2023-04-19T04:09:49.541Z,95180.00
2023-04-19T04:10:49.587Z,95180.00
2023-04-19T04:11:49.628Z,95182.00
2023-04-19T04:12:49.717Z,95184.00
2023-04-19T04:13:49.738Z,95182.00
2023-04-19T04:14:49.782Z,95184.00
2023-04-19T04:15:49.887Z,95182.00
2023-04-19T04:16:49.914Z,95184.00
2023-04-19T04:17:49.955Z,95184.00
2023-04-19T04:18:49.946Z,95182.00
2023-04-19T04:19:50.002Z,95184.00
2023-04-19T04:20:50.051Z,95184.00
2023-04-19T04:21:50.075Z,95186.00
2023-04-19T04:22:50.145Z,95186.00
2023-04-19T04:23:50.148Z,95186.00
2023-04-19T04:24:50.223Z,95188.00
2023-04-19T04:25:50.264Z,95190.00
2023-04-19T04:26:50.335Z,95188.00
2023-04-19T04:27:50.351Z,95186.00
2023-04-19T04:28:50.416Z,95190.00
2023-04-19T04:29:50.483Z,95190.00
2023-04-19T04:30:50.515Z,95188.00
2023-04-19T04:31:50.608Z,95190.00
2023-04-19T04:32:50.636Z,95190.00
2023-04-19T04:33:50.633Z,95190.00
2023-04-19T04:34:50.693Z,95192.00
2023-04-19T04:35:50.843Z,95192.00
2023-04-19T04:36:50.830Z,95188.00
2023-04-19T04:37:50.833Z,95190.00
2023-04-19T04:38:50.894Z,95188.00
2023-04-19T04:39:50.958Z,95190.00
2023-04-19T04:40:50.962Z,95192.00
2023-04-19T04:41:51.034Z,95186.00
2023-04-19T04:42:51.084Z,95184.00
2023-04-19T04:44:04.573Z,95188.00
2023-04-19T04:44:52.122Z,95184.00
2023-04-19T04:45:51.146Z,95184.00
2023-04-19T04:46:51.094Z,95184.00
2023-04-19T04:47:51.137Z,95186.00
2023-04-19T04:48:51.075Z,95186.00
2023-04-19T04:49:51.077Z,95184.00
2023-04-19T04:50:51.125Z,95186.00
2023-04-19T04:51:51.092Z,95182.00
2023-04-19T04:52:51.049Z,95180.00
2023-04-19T04:53:51.039Z,95182.00
2023-04-19T04:54:51.034Z,95184.00
2023-04-19T04:55:51.041Z,95180.00
2023-04-19T04:56:51.153Z,95180.00
2023-04-19T04:57:51.110Z,95180.00
2023-04-19T04:58:51.165Z,95184.00
2023-04-19T04:59:51.200Z,95184.00
2023-04-19T05:00:51.288Z,95182.00
2023-04-19T05:01:51.302Z,95182.00
2023-04-19T05:02:51.514Z,95180.00
2023-04-19T05:03:51.408Z,95178.00
2023-04-19T05:04:51.486Z,95178.00
2023-04-19T05:05:51.491Z,95178.00
2023-04-19T05:06:51.537Z,95178.00
2023-04-19T05:07:51.591Z,95176.00
2023-04-19T05:08:51.645Z,95178.00
2023-04-19T05:09:51.658Z,95176.00
2023-04-19T05:10:51.721Z,95176.00
2023-04-19T05:11:51.785Z,95176.00
2023-04-19T05:12:51.842Z,95176.00
2023-04-19T05:13:51.872Z,95174.00
2023-04-19T05:14:51.897Z,95174.00
2023-04-19T05:15:51.957Z,95174.00
2023-04-19T05:16:52.076Z,95172.00
2023-04-19T05:17:52.283Z,95172.00
2023-04-19T05:18:52.193Z,95172.00
2023-04-19T05:19:52.188Z,95172.00
2023-04-19T05:20:52.207Z,95174.00
2023-04-19T05:21:52.210Z,95172.00
2023-04-19T05:22:52.302Z,95170.00
2023-04-19T05:23:52.467Z,95172.00
2023-04-19T05:24:52.344Z,95172.00
2023-04-19T05:25:52.452Z,95170.00
2023-04-19T05:26:52.441Z,95170.00
2023-04-19T05:27:52.531Z,95170.00
2023-04-19T05:28:52.570Z,95168.00
2023-04-19T05:29:52.567Z,95170.00
2023-04-19T05:30:52.635Z,95170.00
2023-04-19T05:31:52.700Z,95170.00
2023-04-19T05:32:52.792Z,95168.00
2023-04-19T05:33:52.741Z,95164.00
2023-04-19T05:34:52.809Z,95168.00
2023-04-19T05:35:52.880Z,95166.00
2023-04-19T05:36:52.966Z,95168.00
2023-04-19T05:37:53.265Z,95166.00
2023-04-19T05:38:52.984Z,95166.00
2023-04-19T05:39:53.084Z,95168.00
2023-04-19T05:40:53.157Z,95168.00
2023-04-19T05:41:53.166Z,95164.00
2023-04-19T05:42:53.173Z,95166.00
2023-04-19T05:43:53.416Z,95166.00
2023-04-19T05:44:53.221Z,95166.00
2023-04-19T05:46:00.249Z,95164.00
2023-04-19T05:46:53.267Z,95166.00
2023-04-19T05:47:53.414Z,95164.00
2023-04-19T05:48:53.269Z,95166.00
2023-04-19T05:49:53.245Z,95172.00
2023-04-19T05:50:53.197Z,95170.00
2023-04-19T05:51:53.196Z,95170.00
2023-04-19T05:52:53.221Z,95170.00
2023-04-19T05:53:55.000Z,95166.00
2023-04-19T05:54:53.354Z,95168.00
2023-04-19T05:55:53.448Z,95168.00
2023-04-19T05:56:53.439Z,95168.00
2023-04-19T05:57:53.532Z,95166.00
2023-04-19T05:58:53.527Z,95168.00
2023-04-19T05:59:53.567Z,95166.00
2023-04-19T06:00:53.569Z,95168.00
2023-04-19T06:01:53.606Z,95164.00
2023-04-19T06:02:53.780Z,95168.00
2023-04-19T06:03:53.929Z,95168.00
2023-04-19T06:04:53.736Z,95168.00
2023-04-19T06:05:53.749Z,95166.00
2023-04-19T06:06:53.715Z,95166.00
2023-04-19T06:07:55.692Z,95166.00
2023-04-19T06:08:55.172Z,95168.00
2023-04-19T06:09:53.760Z,95166.00
2023-04-19T06:10:57.068Z,95170.00
2023-04-19T06:11:54.834Z,95168.00
2023-04-19T06:12:53.763Z,95168.00
2023-04-19T06:13:53.729Z,95168.00
2023-04-19T06:14:53.794Z,95168.00
2023-04-19T06:15:53.730Z,95168.00
2023-04-19T06:16:53.770Z,95168.00
2023-04-19T06:17:53.726Z,95168.00
2023-04-19T06:18:53.705Z,95164.00
2023-04-19T06:19:53.708Z,95166.00
2023-04-19T06:20:53.706Z,95166.00
2023-04-19T06:21:53.751Z,95166.00
2023-04-19T06:22:53.696Z,95170.00
2023-04-19T06:23:53.688Z,95168.00
2023-04-19T06:24:53.650Z,95168.00
2023-04-19T06:25:53.701Z,95164.00
2023-04-19T06:26:53.667Z,95164.00
2023-04-19T06:27:53.695Z,95164.00
2023-04-19T06:28:53.651Z,95162.00
2023-04-19T06:29:53.627Z,95162.00
2023-04-19T06:30:53.616Z,95168.00
2023-04-19T06:31:53.740Z,95168.00
2023-04-19T06:32:53.640Z,95166.00
2023-04-19T06:33:53.808Z,95168.00
2023-04-19T06:34:53.612Z,95168.00
2023-04-19T06:35:53.565Z,95164.00
2023-04-19T06:36:53.632Z,95166.00
2023-04-19T06:37:53.551Z,95166.00
2023-04-19T06:38:53.610Z,95166.00
2023-04-19T06:39:53.540Z,95166.00
2023-04-19T06:40:53.566Z,95164.00
2023-04-19T06:41:53.533Z,95166.00
2023-04-19T06:42:53.561Z,95166.00
2023-04-19T06:43:53.635Z,95164.00
2023-04-19T06:44:53.524Z,95168.00
2023-04-19T06:45:53.598Z,95168.00
2023-04-19T06:46:53.571Z,95166.00
2023-04-19T06:47:53.589Z,95166.00
2023-04-19T06:48:53.628Z,95166.00
2023-04-19T06:49:53.660Z,95166.00
2023-04-19T06:50:53.710Z,95166.00
2023-04-19T06:51:53.706Z,95172.00
2023-04-19T06:52:53.879Z,95168.00
2023-04-19T06:53:53.802Z,95168.00
2023-04-19T06:54:53.742Z,95166.00
2023-04-19T06:55:53.777Z,95166.00
2023-04-19T06:56:53.784Z,95166.00
2023-04-19T06:57:53.831Z,95164.00
2023-04-19T06:58:53.793Z,95166.00
2023-04-19T06:59:53.810Z,95166.00
2023-04-19T07:00:53.864Z,95166.00
2023-04-19T07:01:53.962Z,95166.00
2023-04-19T07:02:54.061Z,95164.00
2023-04-19T07:03:55.206Z,95166.00
2023-04-19T07:04:53.869Z,95164.00
2023-04-19T07:05:53.835Z,95164.00
2023-04-19T07:06:53.894Z,95166.00
2023-04-19T07:07:53.861Z,95166.00
2023-04-19T07:08:53.822Z,95168.00
2023-04-19T07:09:53.815Z,95168.00
2023-04-19T07:10:53.777Z,95170.00
2023-04-19T07:11:53.770Z,95168.00
2023-04-19T07:12:53.791Z,95170.00
2023-04-19T07:13:53.773Z,95168.00
2023-04-19T07:14:53.800Z,95166.00
2023-04-19T07:15:53.780Z,95166.00
2023-04-19T07:16:53.803Z,95164.00
2023-04-19T07:17:53.845Z,95162.00
2023-04-19T07:18:53.757Z,95162.00
2023-04-19T07:19:53.747Z,95158.00
2023-04-19T07:20:53.733Z,95158.00
2023-04-19T07:21:53.701Z,95160.00
2023-04-19T07:22:53.681Z,95156.00
2023-04-19T07:23:53.860Z,95158.00
2023-04-19T07:24:53.695Z,95156.00
2023-04-19T07:25:53.856Z,95156.00
2023-04-19T07:26:53.682Z,95156.00
2023-04-19T07:27:53.792Z,95156.00
2023-04-19T07:28:53.826Z,95156.00
2023-04-19T07:29:53.697Z,95156.00
2023-04-19T07:30:53.671Z,95155.00
2023-04-19T07:31:53.664Z,95155.00
2023-04-19T07:32:53.723Z,95153.00
2023-04-19T07:33:53.833Z,95153.00
2023-04-19T07:34:53.638Z,95149.00
2023-04-19T07:35:53.649Z,95149.00
2023-04-19T07:36:53.652Z,95153.00
2023-04-19T07:37:53.621Z,95149.00
2023-04-19T07:38:53.660Z,95149.00
2023-04-19T07:39:53.631Z,95147.00
2023-04-19T07:40:53.623Z,95147.00
2023-04-19T07:41:53.585Z,95145.00
2023-04-19T07:42:53.571Z,95147.00
2023-04-19T07:43:53.583Z,95145.00
2023-04-19T07:44:53.593Z,95145.00
2023-04-19T07:45:53.540Z,95137.00
2023-04-19T07:46:53.757Z,95137.00
2023-04-19T07:47:53.667Z,95145.00
2023-04-19T07:48:53.522Z,95147.00
2023-04-19T07:49:54.302Z,95137.00
2023-04-19T07:50:53.530Z,95135.00
2023-04-19T07:51:53.536Z,95135.00
2023-04-19T07:52:53.473Z,95135.00
2023-04-19T07:53:53.850Z,95131.00
2023-04-19T07:54:53.501Z,95131.00
2023-04-19T07:55:53.517Z,95131.00
2023-04-19T07:56:53.480Z,95129.00
2023-04-19T07:57:53.476Z,95129.00
2023-04-19T07:59:06.839Z,95129.00
2023-04-19T07:59:54.484Z,95129.00
2023-04-19T08:00:53.470Z,95129.00
2023-04-19T08:01:53.557Z,95131.00
2023-04-19T08:02:53.624Z,95127.00
2023-04-19T08:03:53.810Z,95129.00
2023-04-19T08:04:53.600Z,95129.00
2023-04-19T08:05:53.790Z,95129.00
2023-04-19T08:06:53.451Z,95131.00
2023-04-19T08:07:53.472Z,95129.00
2023-04-19T08:08:53.384Z,95131.00
2023-04-19T08:09:53.480Z,95127.00
2023-04-19T08:10:53.415Z,95127.00
2023-04-19T08:11:53.409Z,95125.00
2023-04-19T08:15:03.850Z,95125.00
2023-04-19T08:17:53.468Z,95125.00
2023-04-19T08:18:53.439Z,95123.00
2023-04-19T08:19:53.478Z,95121.00
2023-04-19T08:20:53.461Z,95121.00
2023-04-19T08:21:53.402Z,95119.00
2023-04-19T08:22:53.505Z,95119.00
2023-04-19T08:23:54.382Z,95115.00
2023-04-19T08:24:53.437Z,95115.00
2023-04-19T08:25:53.436Z,95113.00
2023-04-19T08:26:53.420Z,95111.00
2023-04-19T08:27:53.392Z,95113.00
2023-04-19T08:28:53.395Z,95113.00
2023-04-19T08:29:53.345Z,95109.00
2023-04-19T08:30:53.359Z,95111.00
2023-04-19T08:31:53.387Z,95113.00
2023-04-19T08:32:56.324Z,95109.00
2023-04-19T08:33:53.386Z,95109.00
2023-04-19T08:34:53.356Z,95109.00
2023-04-19T08:35:53.443Z,95113.00
2023-04-19T08:37:03.349Z,95109.00
2023-04-19T08:37:54.325Z,95111.00
2023-04-19T08:39:04.301Z,95105.00
2023-04-19T08:39:54.429Z,95109.00
2023-04-19T08:40:55.951Z,95109.00
2023-04-19T08:42:02.703Z,95105.00
2023-04-19T08:42:54.554Z,95107.00
2023-04-19T08:43:53.521Z,95105.00
2023-04-19T08:45:19.040Z,95107.00
2023-04-19T08:45:54.533Z,95107.00
2023-04-19T08:46:53.505Z,95103.00
2023-04-19T08:48:00.722Z,95105.00
2023-04-19T08:48:54.571Z,95103.00
2023-04-19T08:50:03.928Z,95103.00
2023-04-19T08:51:04.110Z,95101.00
2023-04-19T08:51:54.486Z,95101.00
2023-04-19T08:52:58.787Z,95099.00
2023-04-19T08:53:54.468Z,95099.00
2023-04-19T08:54:53.895Z,95096.00
2023-04-19T08:56:53.427Z,95092.00
2023-04-19T08:57:53.414Z,95094.00
2023-04-19T08:59:07.580Z,95090.00
2023-04-19T08:59:54.857Z,95090.00
2023-04-19T09:00:53.419Z,95088.00
2023-04-19T09:01:53.483Z,95090.00
2023-04-19T09:02:53.492Z,95090.00
2023-04-19T09:04:03.408Z,95088.00
2023-04-19T09:04:54.771Z,95084.00
2023-04-19T09:05:53.503Z,95084.00
2023-04-19T09:06:53.367Z,95082.00
2023-04-19T09:07:53.330Z,95080.00
2023-04-19T09:08:53.404Z,95078.00
2023-04-19T09:10:02.494Z,95078.00
2023-04-19T09:10:54.487Z,95076.00
2023-04-19T09:11:53.303Z,95076.00
2023-04-19T09:12:53.302Z,95074.00
2023-04-19T09:13:53.317Z,95074.00
2023-04-19T09:15:01.603Z,95070.00
2023-04-19T09:15:54.328Z,95070.00
2023-04-19T09:16:53.892Z,95066.00
2023-04-19T09:17:53.337Z,95064.00
2023-04-19T09:19:02.423Z,95064.00
2023-04-19T09:19:54.252Z,95064.00
2023-04-19T09:20:53.272Z,95066.00
2023-04-19T09:21:53.263Z,95060.00
2023-04-19T09:22:53.238Z,95060.00
2023-04-19T09:23:53.234Z,95060.00
2023-04-19T09:25:30.685Z,95056.00
2023-04-19T09:26:53.234Z,95052.00
2023-04-19T09:27:53.200Z,95054.00
2023-04-19T09:28:53.213Z,95051.00
2023-04-19T09:29:53.223Z,95047.00
2023-04-19T09:31:00.574Z,95049.00
2023-04-19T09:31:54.327Z,95047.00
2023-04-19T09:32:53.266Z,95047.00
2023-04-19T09:33:53.210Z,95045.00
2023-04-19T09:34:53.212Z,95043.00
2023-04-19T09:35:53.162Z,95041.00
2023-04-19T09:37:01.012Z,95041.00
2023-04-19T09:38:53.218Z,95037.00
2023-04-19T09:39:53.213Z,95037.00
2023-04-19T09:40:53.896Z,95031.00
2023-04-19T09:41:53.170Z,95027.00
2023-04-19T09:43:05.414Z,95025.00
2023-04-19T09:44:08.851Z,95023.00
2023-04-19T09:45:28.218Z,95025.00
2023-04-19T09:45:54.130Z,95023.00
2023-04-19T09:46:53.853Z,95023.00
2023-04-19T09:47:53.093Z,95019.00
2023-04-19T09:48:53.089Z,95019.00
2023-04-19T09:49:53.231Z,95019.00
2023-04-19T09:50:58.546Z,95017.00
2023-04-19T09:51:54.093Z,95013.00
2023-04-19T09:52:53.116Z,95015.00
2023-04-19T09:53:53.067Z,95009.00
2023-04-19T09:54:52.999Z,95011.00
2023-04-19T09:56:01.497Z,95009.00
2023-04-19T09:56:57.013Z,95011.00
2023-04-19T09:57:53.006Z,95009.00
2023-04-19T09:58:58.836Z,95009.00
2023-04-19T09:59:53.985Z,95007.00
2023-04-19T10:00:57.233Z,95004.00
2023-04-19T10:01:54.118Z,95005.00
2023-04-19T10:02:53.029Z,95005.00
2023-04-19T10:03:53.342Z,95002.00
2023-04-19T10:05:52.975Z,95000.00
2023-04-19T10:07:56.721Z,94996.00
2023-04-19T10:08:53.971Z,94994.00
2023-04-19T10:09:55.071Z,94992.00
2023-04-19T10:10:53.929Z,94992.00
2023-04-19T10:11:58.135Z,94990.00
2023-04-19T10:13:53.947Z,94988.00
2023-04-19T10:14:52.934Z,94986.00
2023-04-19T10:15:59.104Z,94992.00
2023-04-19T10:16:53.958Z,94984.00
2023-04-19T10:17:52.933Z,94986.00
2023-04-19T10:18:52.873Z,94982.00
2023-04-19T10:19:52.839Z,94978.00
2023-04-19T10:20:52.877Z,94980.00
2023-04-19T10:21:52.871Z,94978.00
2023-04-19T10:22:52.877Z,94976.00
2023-04-19T10:23:52.823Z,94974.00
2023-04-19T10:24:52.824Z,94974.00
2023-04-19T10:25:52.795Z,94976.00
2023-04-19T10:26:52.926Z,94974.00
2023-04-19T10:27:52.773Z,94968.00
2023-04-19T10:28:52.828Z,94968.00
2023-04-19T10:29:52.780Z,94966.00
2023-04-19T10:30:52.773Z,94964.00
2023-04-19T10:31:52.937Z,94960.00
2023-04-19T10:32:52.978Z,94962.00
2023-04-19T10:33:52.747Z,94958.00
2023-04-19T10:34:52.761Z,94960.00
2023-04-19T10:35:52.779Z,94954.00
2023-04-19T10:36:52.913Z,94954.00
2023-04-19T10:37:52.850Z,94951.00
2023-04-19T10:38:52.901Z,94949.00
2023-04-19T10:39:52.889Z,94949.00
2023-04-19T10:40:52.959Z,94951.00
2023-04-19T10:41:53.881Z,94945.00
2023-04-19T10:42:52.954Z,94945.00
2023-04-19T10:43:53.080Z,94943.00
2023-04-19T10:44:53.034Z,94943.00
2023-04-19T10:45:53.086Z,94939.00
2023-04-19T10:46:53.051Z,94937.00
2023-04-19T10:47:53.085Z,94935.00
2023-04-19T10:48:53.141Z,94933.00
2023-04-19T10:49:53.138Z,94929.00
2023-04-19T10:50:53.189Z,94929.00
2023-04-19T10:51:53.114Z,94925.00
2023-04-19T10:52:53.124Z,94927.00
2023-04-19T10:53:53.130Z,94925.00
2023-04-19T10:54:53.156Z,94923.00
2023-04-19T10:55:53.161Z,94919.00
2023-04-19T10:56:53.430Z,94917.00
2023-04-19T10:57:53.152Z,94911.00
2023-04-19T10:58:53.131Z,94911.00
2023-04-19T10:59:53.293Z,94909.00
2023-04-19T11:00:53.143Z,94911.00
2023-04-19T11:01:53.328Z,94905.00
2023-04-19T11:02:53.231Z,94905.00
2023-04-19T11:03:53.530Z,94903.00
2023-04-19T11:04:53.184Z,94902.00
2023-04-19T11:05:53.183Z,94898.00
2023-04-19T11:06:53.341Z,94898.00
2023-04-19T11:07:53.317Z,94892.00
2023-04-19T11:08:53.296Z,94894.00
2023-04-19T11:09:53.313Z,94894.00
2023-04-19T11:10:53.486Z,94888.00
2023-04-19T11:11:53.247Z,94888.00
2023-04-19T11:12:53.260Z,94880.00
2023-04-19T11:13:53.309Z,94876.00
2023-04-19T11:14:53.368Z,94876.00
2023-04-19T11:15:53.478Z,94872.00
2023-04-19T11:16:53.606Z,94872.00
2023-04-19T11:18:08.763Z,94872.00
2023-04-19T11:18:54.366Z,94872.00
2023-04-19T11:19:53.372Z,94870.00
2023-04-19T11:20:53.364Z,94868.00
2023-04-19T11:21:53.389Z,94866.00
2023-04-19T11:22:53.356Z,94866.00
2023-04-19T11:23:53.360Z,94866.00
2023-04-19T11:24:53.325Z,94866.00
2023-04-19T11:25:53.379Z,94862.00
2023-04-19T11:26:55.448Z,94860.00
2023-04-19T11:27:54.923Z,94860.00
2023-04-19T11:28:53.326Z,94860.00
2023-04-19T11:29:53.312Z,94855.00
2023-04-19T11:30:53.340Z,94857.00
2023-04-19T11:31:53.935Z,94853.00
2023-04-19T11:32:53.535Z,94853.00
2023-04-19T11:33:53.296Z,94851.00
2023-04-19T11:34:53.354Z,94845.00
2023-04-19T11:35:53.344Z,94845.00
2023-04-19T11:36:53.418Z,94843.00
2023-04-19T11:37:53.950Z,94841.00
2023-04-19T11:38:53.553Z,94839.00
2023-04-19T11:39:53.570Z,94839.00
2023-04-19T11:40:53.649Z,94835.00
2023-04-19T11:41:53.694Z,94833.00
2023-04-19T11:42:53.759Z,94835.00
2023-04-19T11:43:53.819Z,94833.00
2023-04-19T11:44:53.895Z,94831.00
2023-04-19T11:45:53.939Z,94831.00
2023-04-19T11:46:54.088Z,94833.00
2023-04-19T11:47:54.142Z,94829.00
2023-04-19T11:48:54.132Z,94825.00
2023-04-19T11:49:54.164Z,94825.00
2023-04-19T11:50:54.227Z,94823.00
2023-04-19T11:51:54.350Z,94821.00
2023-04-19T11:52:55.004Z,94817.00
2023-04-19T11:53:54.459Z,94819.00
2023-04-19T11:54:54.512Z,94819.00